sensor_id;sensor_type;location;lat;lon;timestamp;P1;durP1;ratioP1;P2;durP2;ratioP2
17592;SDS011;8915;51.760;14.300;2022-07-06T00:00:42;16.17;;;9.40;;
17592;SDS011;8915;51.760;14.300;2022-07-06T00:03:09;19.20;;;9.00;;
17592;SDS011;8915;51.760;14.300;2022-07-06T00:05:35;14.87;;;7.87;;
17592;SDS011;8915;51.760;14.300;2022-07-06T00:08:02;15.03;;;6.93;;
17592;SDS011;8915;51.760;14.300;2022-07-06T00:10:30;13.33;;;6.90;;
17592;SDS011;8915;51.760;14.300;2022-07-06T00:12:56;10.73;;;6.10;;
17592;SDS011;8915;51.760;14.300;2022-07-06T00:15:23;10.50;;;5.80;;
17592;SDS011;8915;51.760;14.300;2022-07-06T00:17:49;9.47;;;5.23;;
17592;SDS011;8915;51.760;14.300;2022-07-06T00:20:15;5.43;;;3.37;;
17592;SDS011;8915;51.760;14.300;2022-07-06T00:22:42;4.10;;;3.20;;
17592;SDS011;8915;51.760;14.300;2022-07-06T00:25:08;4.03;;;2.67;;
17592;SDS011;8915;51.760;14.300;2022-07-06T00:27:36;3.83;;;2.40;;
17592;SDS011;8915;51.760;14.300;2022-07-06T00:30:02;4.17;;;2.53;;
17592;SDS011;8915;51.760;14.300;2022-07-06T00:32:29;3.43;;;2.23;;
17592;SDS011;8915;51.760;14.300;2022-07-06T00:34:56;3.07;;;2.13;;
17592;SDS011;8915;51.760;14.300;2022-07-06T00:37:22;3.53;;;1.90;;
17592;SDS011;8915;51.760;14.300;2022-07-06T00:39:48;2.50;;;1.90;;
17592;SDS011;8915;51.760;14.300;2022-07-06T00:42:15;5.63;;;1.83;;
17592;SDS011;8915;51.760;14.300;2022-07-06T00:44:42;4.30;;;1.60;;
17592;SDS011;8915;51.760;14.300;2022-07-06T00:47:09;3.17;;;1.63;;
17592;SDS011;8915;51.760;14.300;2022-07-06T00:49:35;2.60;;;1.60;;
17592;SDS011;8915;51.760;14.300;2022-07-06T00:52:19;3.70;;;1.60;;
17592;SDS011;8915;51.760;14.300;2022-07-06T00:54:46;2.77;;;1.40;;
17592;SDS011;8915;51.760;14.300;2022-07-06T00:57:13;3.50;;;1.43;;
17592;SDS011;8915;51.760;14.300;2022-07-06T00:59:40;2.10;;;1.30;;
17592;SDS011;8915;51.760;14.300;2022-07-06T01:02:07;1.60;;;1.30;;
17592;SDS011;8915;51.760;14.300;2022-07-06T01:04:34;1.37;;;1.27;;
17592;SDS011;8915;51.760;14.300;2022-07-06T01:07:00;3.60;;;1.30;;
17592;SDS011;8915;51.760;14.300;2022-07-06T01:09:27;1.40;;;1.30;;
17592;SDS011;8915;51.760;14.300;2022-07-06T01:11:55;1.27;;;1.17;;
17592;SDS011;8915;51.760;14.300;2022-07-06T01:14:21;1.80;;;1.17;;
17592;SDS011;8915;51.760;14.300;2022-07-06T01:16:48;1.30;;;1.20;;
17592;SDS011;8915;51.760;14.300;2022-07-06T01:19:16;3.37;;;1.43;;
17592;SDS011;8915;51.760;14.300;2022-07-06T01:21:44;2.63;;;1.47;;
17592;SDS011;8915;51.760;14.300;2022-07-06T01:24:10;2.80;;;1.57;;
17592;SDS011;8915;51.760;14.300;2022-07-06T01:26:37;2.17;;;1.50;;
17592;SDS011;8915;51.760;14.300;2022-07-06T01:29:04;1.93;;;1.70;;
17592;SDS011;8915;51.760;14.300;2022-07-06T01:31:30;1.60;;;1.50;;
17592;SDS011;8915;51.760;14.300;2022-07-06T01:33:57;3.30;;;1.67;;
17592;SDS011;8915;51.760;14.300;2022-07-06T01:36:24;2.57;;;1.73;;
17592;SDS011;8915;51.760;14.300;2022-07-06T01:38:52;1.60;;;1.50;;
17592;SDS011;8915;51.760;14.300;2022-07-06T01:41:20;2.30;;;1.70;;
17592;SDS011;8915;51.760;14.300;2022-07-06T01:43:47;1.53;;;1.40;;
17592;SDS011;8915;51.760;14.300;2022-07-06T01:46:17;4.23;;;1.60;;
17592;SDS011;8915;51.760;14.300;2022-07-06T01:48:45;2.63;;;1.70;;
17592;SDS011;8915;51.760;14.300;2022-07-06T01:51:12;6.57;;;1.80;;
17592;SDS011;8915;51.760;14.300;2022-07-06T01:53:39;2.20;;;1.70;;
17592;SDS011;8915;51.760;14.300;2022-07-06T01:56:09;7.67;;;1.80;;
17592;SDS011;8915;51.760;14.300;2022-07-06T01:58:36;2.37;;;1.60;;
17592;SDS011;8915;51.760;14.300;2022-07-06T02:01:06;1.30;;;1.20;;
17592;SDS011;8915;51.760;14.300;2022-07-06T02:03:33;2.93;;;1.70;;
17592;SDS011;8915;51.760;14.300;2022-07-06T02:06:00;2.03;;;1.47;;
17592;SDS011;8915;51.760;14.300;2022-07-06T02:08:26;3.53;;;1.70;;
17592;SDS011;8915;51.760;14.300;2022-07-06T02:10:54;2.93;;;1.60;;
17592;SDS011;8915;51.760;14.300;2022-07-06T02:13:22;1.87;;;1.67;;
17592;SDS011;8915;51.760;14.300;2022-07-06T02:15:48;5.40;;;1.57;;
17592;SDS011;8915;51.760;14.300;2022-07-06T02:18:15;4.10;;;1.80;;
17592;SDS011;8915;51.760;14.300;2022-07-06T02:20:41;1.70;;;1.60;;
17592;SDS011;8915;51.760;14.300;2022-07-06T02:23:09;2.43;;;1.63;;
17592;SDS011;8915;51.760;14.300;2022-07-06T02:25:35;1.60;;;1.50;;
17592;SDS011;8915;51.760;14.300;2022-07-06T02:28:02;3.13;;;1.83;;
17592;SDS011;8915;51.760;14.300;2022-07-06T02:30:30;1.70;;;1.60;;
17592;SDS011;8915;51.760;14.300;2022-07-06T02:32:56;1.57;;;1.47;;
17592;SDS011;8915;51.760;14.300;2022-07-06T02:35:24;2.00;;;1.33;;
17592;SDS011;8915;51.760;14.300;2022-07-06T02:37:50;2.97;;;1.50;;
17592;SDS011;8915;51.760;14.300;2022-07-06T02:40:17;2.17;;;1.80;;
17592;SDS011;8915;51.760;14.300;2022-07-06T02:42:43;2.30;;;1.50;;
17592;SDS011;8915;51.760;14.300;2022-07-06T02:45:10;3.30;;;1.40;;
17592;SDS011;8915;51.760;14.300;2022-07-06T02:47:38;1.53;;;1.43;;
17592;SDS011;8915;51.760;14.300;2022-07-06T02:50:05;2.17;;;1.70;;
17592;SDS011;8915;51.760;14.300;2022-07-06T02:52:33;1.50;;;1.40;;
17592;SDS011;8915;51.760;14.300;2022-07-06T02:55:00;2.37;;;1.57;;
17592;SDS011;8915;51.760;14.300;2022-07-06T02:57:27;1.73;;;1.63;;
17592;SDS011;8915;51.760;14.300;2022-07-06T02:59:56;5.27;;;1.63;;
17592;SDS011;8915;51.760;14.300;2022-07-06T03:02:22;2.00;;;1.60;;
17592;SDS011;8915;51.760;14.300;2022-07-06T03:04:50;4.27;;;1.63;;
17592;SDS011;8915;51.760;14.300;2022-07-06T03:07:17;1.87;;;1.67;;
17592;SDS011;8915;51.760;14.300;2022-07-06T03:09:44;1.73;;;1.63;;
17592;SDS011;8915;51.760;14.300;2022-07-06T03:12:12;2.83;;;2.10;;
17592;SDS011;8915;51.760;14.300;2022-07-06T03:14:39;1.60;;;1.50;;
17592;SDS011;8915;51.760;14.300;2022-07-06T03:17:06;2.70;;;1.60;;
17592;SDS011;8915;51.760;14.300;2022-07-06T03:19:32;4.83;;;1.70;;
17592;SDS011;8915;51.760;14.300;2022-07-06T03:22:00;2.03;;;1.50;;
17592;SDS011;8915;51.760;14.300;2022-07-06T03:24:26;1.40;;;1.30;;
17592;SDS011;8915;51.760;14.300;2022-07-06T03:26:53;2.50;;;1.70;;
17592;SDS011;8915;51.760;14.300;2022-07-06T03:29:19;1.63;;;1.53;;
17592;SDS011;8915;51.760;14.300;2022-07-06T03:31:46;1.90;;;1.60;;
17592;SDS011;8915;51.760;14.300;2022-07-06T03:34:13;1.77;;;1.50;;
17592;SDS011;8915;51.760;14.300;2022-07-06T03:36:39;1.97;;;1.67;;
17592;SDS011;8915;51.760;14.300;2022-07-06T03:39:08;4.57;;;1.70;;
17592;SDS011;8915;51.760;14.300;2022-07-06T03:41:36;1.87;;;1.60;;
17592;SDS011;8915;51.760;14.300;2022-07-06T03:44:03;1.93;;;1.57;;
17592;SDS011;8915;51.760;14.300;2022-07-06T03:46:30;3.33;;;1.80;;
17592;SDS011;8915;51.760;14.300;2022-07-06T03:48:57;3.10;;;2.00;;
17592;SDS011;8915;51.760;14.300;2022-07-06T03:51:23;1.97;;;1.47;;
17592;SDS011;8915;51.760;14.300;2022-07-06T03:53:51;2.10;;;1.63;;
17592;SDS011;8915;51.760;14.300;2022-07-06T03:56:19;1.57;;;1.33;;
17592;SDS011;8915;51.760;14.300;2022-07-06T03:59:01;2.00;;;1.50;;
17592;SDS011;8915;51.760;14.300;2022-07-06T04:01:32;1.67;;;1.57;;
17592;SDS011;8915;51.760;14.300;2022-07-06T04:03:59;1.60;;;1.50;;
17592;SDS011;8915;51.760;14.300;2022-07-06T04:06:25;3.07;;;1.40;;
17592;SDS011;8915;51.760;14.300;2022-07-06T04:08:52;3.57;;;1.70;;
17592;SDS011;8915;51.760;14.300;2022-07-06T04:11:20;1.33;;;1.23;;
17592;SDS011;8915;51.760;14.300;2022-07-06T04:13:46;1.87;;;1.60;;
17592;SDS011;8915;51.760;14.300;2022-07-06T04:16:13;1.40;;;1.30;;
17592;SDS011;8915;51.760;14.300;2022-07-06T04:18:40;1.50;;;1.40;;
17592;SDS011;8915;51.760;14.300;2022-07-06T04:21:06;2.00;;;1.80;;
17592;SDS011;8915;51.760;14.300;2022-07-06T04:23:35;3.77;;;1.60;;
17592;SDS011;8915;51.760;14.300;2022-07-06T04:26:03;1.87;;;1.40;;
17592;SDS011;8915;51.760;14.300;2022-07-06T04:28:34;1.40;;;1.30;;
17592;SDS011;8915;51.760;14.300;2022-07-06T04:31:00;1.40;;;1.20;;
17592;SDS011;8915;51.760;14.300;2022-07-06T04:33:27;2.50;;;1.53;;
17592;SDS011;8915;51.760;14.300;2022-07-06T04:35:54;3.47;;;1.40;;
17592;SDS011;8915;51.760;14.300;2022-07-06T04:38:24;3.77;;;1.70;;
17592;SDS011;8915;51.760;14.300;2022-07-06T04:40:53;1.47;;;1.30;;
17592;SDS011;8915;51.760;14.300;2022-07-06T04:43:20;5.60;;;1.60;;
17592;SDS011;8915;51.760;14.300;2022-07-06T04:45:47;1.90;;;1.50;;
17592;SDS011;8915;51.760;14.300;2022-07-06T04:48:14;1.50;;;1.40;;
17592;SDS011;8915;51.760;14.300;2022-07-06T04:50:40;3.10;;;1.30;;
17592;SDS011;8915;51.760;14.300;2022-07-06T04:53:12;1.57;;;1.40;;
17592;SDS011;8915;51.760;14.300;2022-07-06T04:55:39;1.80;;;1.20;;
17592;SDS011;8915;51.760;14.300;2022-07-06T04:58:06;2.30;;;1.10;;
17592;SDS011;8915;51.760;14.300;2022-07-06T05:00:32;2.27;;;1.13;;
17592;SDS011;8915;51.760;14.300;2022-07-06T05:03:00;1.20;;;1.10;;
17592;SDS011;8915;51.760;14.300;2022-07-06T05:05:27;1.47;;;1.13;;
17592;SDS011;8915;51.760;14.300;2022-07-06T05:07:53;2.50;;;1.33;;
17592;SDS011;8915;51.760;14.300;2022-07-06T05:10:19;1.57;;;1.00;;
17592;SDS011;8915;51.760;14.300;2022-07-06T05:12:50;1.43;;;0.90;;
17592;SDS011;8915;51.760;14.300;2022-07-06T05:15:16;1.10;;;1.00;;
17592;SDS011;8915;51.760;14.300;2022-07-06T05:17:43;3.60;;;1.33;;
17592;SDS011;8915;51.760;14.300;2022-07-06T05:20:12;2.53;;;1.13;;
17592;SDS011;8915;51.760;14.300;2022-07-06T05:22:41;1.73;;;1.00;;
17592;SDS011;8915;51.760;14.300;2022-07-06T05:25:08;1.70;;;1.10;;
17592;SDS011;8915;51.760;14.300;2022-07-06T05:27:35;2.10;;;1.10;;
17592;SDS011;8915;51.760;14.300;2022-07-06T05:30:02;1.20;;;1.10;;
17592;SDS011;8915;51.760;14.300;2022-07-06T05:32:30;1.93;;;1.17;;
17592;SDS011;8915;51.760;14.300;2022-07-06T05:34:57;1.20;;;1.10;;
17592;SDS011;8915;51.760;14.300;2022-07-06T05:37:25;1.73;;;1.10;;
17592;SDS011;8915;51.760;14.300;2022-07-06T05:39:52;2.40;;;0.70;;
17592;SDS011;8915;51.760;14.300;2022-07-06T05:42:19;1.40;;;1.10;;
17592;SDS011;8915;51.760;14.300;2022-07-06T05:44:46;1.43;;;0.90;;
17592;SDS011;8915;51.760;14.300;2022-07-06T05:47:13;1.07;;;0.80;;
17592;SDS011;8915;51.760;14.300;2022-07-06T05:49:57;1.10;;;1.00;;
17592;SDS011;8915;51.760;14.300;2022-07-06T05:52:57;1.07;;;0.80;;
17592;SDS011;8915;51.760;14.300;2022-07-06T05:55:27;2.97;;;1.10;;
17592;SDS011;8915;51.760;14.300;2022-07-06T05:57:54;0.90;;;0.90;;
17592;SDS011;8915;51.760;14.300;2022-07-06T06:00:24;3.07;;;1.10;;
17592;SDS011;8915;51.760;14.300;2022-07-06T06:02:54;2.57;;;1.03;;
17592;SDS011;8915;51.760;14.300;2022-07-06T06:05:21;1.27;;;0.90;;
17592;SDS011;8915;51.760;14.300;2022-07-06T06:07:51;2.03;;;0.77;;
17592;SDS011;8915;51.760;14.300;2022-07-06T06:10:21;2.73;;;1.30;;
17592;SDS011;8915;51.760;14.300;2022-07-06T06:12:51;2.03;;;1.00;;
17592;SDS011;8915;51.760;14.300;2022-07-06T06:15:18;3.20;;;0.90;;
17592;SDS011;8915;51.760;14.300;2022-07-06T06:17:44;2.20;;;1.03;;
17592;SDS011;8915;51.760;14.300;2022-07-06T06:20:11;2.77;;;0.80;;
17592;SDS011;8915;51.760;14.300;2022-07-06T06:22:46;1.27;;;0.90;;
17592;SDS011;8915;51.760;14.300;2022-07-06T06:25:13;1.43;;;0.80;;
17592;SDS011;8915;51.760;14.300;2022-07-06T06:27:41;2.27;;;1.00;;
17592;SDS011;8915;51.760;14.300;2022-07-06T06:30:08;3.07;;;0.90;;
17592;SDS011;8915;51.760;14.300;2022-07-06T06:32:35;4.70;;;0.80;;
17592;SDS011;8915;51.760;14.300;2022-07-06T06:35:01;1.80;;;0.83;;
17592;SDS011;8915;51.760;14.300;2022-07-06T06:37:28;1.00;;;1.00;;
17592;SDS011;8915;51.760;14.300;2022-07-06T06:39:55;1.17;;;1.00;;
17592;SDS011;8915;51.760;14.300;2022-07-06T06:42:21;1.67;;;0.90;;
17592;SDS011;8915;51.760;14.300;2022-07-06T06:44:51;1.03;;;0.70;;
17592;SDS011;8915;51.760;14.300;2022-07-06T06:47:17;1.53;;;0.93;;
17592;SDS011;8915;51.760;14.300;2022-07-06T06:49:45;1.70;;;0.97;;
17592;SDS011;8915;51.760;14.300;2022-07-06T06:52:11;1.97;;;0.73;;
17592;SDS011;8915;51.760;14.300;2022-07-06T06:54:38;2.00;;;0.80;;
17592;SDS011;8915;51.760;14.300;2022-07-06T06:57:04;2.10;;;0.70;;
17592;SDS011;8915;51.760;14.300;2022-07-06T06:59:30;1.47;;;1.00;;
17592;SDS011;8915;51.760;14.300;2022-07-06T07:01:58;2.40;;;1.00;;
17592;SDS011;8915;51.760;14.300;2022-07-06T07:04:24;2.03;;;0.90;;
17592;SDS011;8915;51.760;14.300;2022-07-06T07:06:51;2.27;;;0.90;;
17592;SDS011;8915;51.760;14.300;2022-07-06T07:09:17;1.97;;;0.80;;
17592;SDS011;8915;51.760;14.300;2022-07-06T07:11:43;7.53;;;1.00;;
17592;SDS011;8915;51.760;14.300;2022-07-06T07:14:09;1.03;;;0.90;;
17592;SDS011;8915;51.760;14.300;2022-07-06T07:16:36;0.90;;;0.63;;
17592;SDS011;8915;51.760;14.300;2022-07-06T07:19:03;1.37;;;0.80;;
17592;SDS011;8915;51.760;14.300;2022-07-06T07:21:30;1.60;;;0.90;;
17592;SDS011;8915;51.760;14.300;2022-07-06T07:23:56;1.80;;;0.60;;
17592;SDS011;8915;51.760;14.300;2022-07-06T07:26:23;0.80;;;0.70;;
17592;SDS011;8915;51.760;14.300;2022-07-06T07:28:49;2.43;;;0.80;;
17592;SDS011;8915;51.760;14.300;2022-07-06T07:31:15;0.93;;;0.77;;
17592;SDS011;8915;51.760;14.300;2022-07-06T07:33:42;3.50;;;0.70;;
17592;SDS011;8915;51.760;14.300;2022-07-06T07:36:09;0.93;;;0.93;;
17592;SDS011;8915;51.760;14.300;2022-07-06T07:38:36;2.33;;;0.70;;
17592;SDS011;8915;51.760;14.300;2022-07-06T07:41:02;2.20;;;0.80;;
17592;SDS011;8915;51.760;14.300;2022-07-06T07:43:30;1.90;;;0.80;;
17592;SDS011;8915;51.760;14.300;2022-07-06T07:45:56;2.73;;;0.73;;
17592;SDS011;8915;51.760;14.300;2022-07-06T07:48:23;1.17;;;0.60;;
17592;SDS011;8915;51.760;14.300;2022-07-06T07:50:49;2.77;;;0.80;;
17592;SDS011;8915;51.760;14.300;2022-07-06T07:53:17;2.40;;;1.00;;
17592;SDS011;8915;51.760;14.300;2022-07-06T07:55:44;0.70;;;0.70;;
17592;SDS011;8915;51.760;14.300;2022-07-06T07:58:10;0.50;;;0.50;;
17592;SDS011;8915;51.760;14.300;2022-07-06T08:00:36;2.83;;;0.80;;
17592;SDS011;8915;51.760;14.300;2022-07-06T08:03:03;1.33;;;0.60;;
17592;SDS011;8915;51.760;14.300;2022-07-06T08:05:30;0.93;;;0.73;;
17592;SDS011;8915;51.760;14.300;2022-07-06T08:07:56;3.80;;;1.00;;
17592;SDS011;8915;51.760;14.300;2022-07-06T08:10:24;1.73;;;0.70;;
17592;SDS011;8915;51.760;14.300;2022-07-06T08:12:50;0.60;;;0.60;;
17592;SDS011;8915;51.760;14.300;2022-07-06T08:15:16;2.10;;;0.60;;
17592;SDS011;8915;51.760;14.300;2022-07-06T08:17:43;1.13;;;0.77;;
17592;SDS011;8915;51.760;14.300;2022-07-06T08:20:10;1.57;;;0.60;;
17592;SDS011;8915;51.760;14.300;2022-07-06T08:22:37;0.83;;;0.60;;
17592;SDS011;8915;51.760;14.300;2022-07-06T08:25:04;3.83;;;0.80;;
17592;SDS011;8915;51.760;14.300;2022-07-06T08:27:33;2.83;;;0.60;;
17592;SDS011;8915;51.760;14.300;2022-07-06T08:30:00;0.80;;;0.70;;
17592;SDS011;8915;51.760;14.300;2022-07-06T08:32:26;3.27;;;0.83;;
17592;SDS011;8915;51.760;14.300;2022-07-06T08:34:53;0.40;;;0.40;;
17592;SDS011;8915;51.760;14.300;2022-07-06T08:37:19;1.00;;;0.60;;
17592;SDS011;8915;51.760;14.300;2022-07-06T08:39:46;0.83;;;0.40;;
17592;SDS011;8915;51.760;14.300;2022-07-06T08:42:12;1.23;;;0.50;;
17592;SDS011;8915;51.760;14.300;2022-07-06T08:48:31;0.63;;;0.60;;
17592;SDS011;8915;51.760;14.300;2022-07-06T08:51:03;1.73;;;0.80;;
17592;SDS011;8915;51.760;14.300;2022-07-06T08:53:30;0.57;;;0.50;;
17592;SDS011;8915;51.760;14.300;2022-07-06T08:55:57;1.27;;;0.77;;
17592;SDS011;8915;51.760;14.300;2022-07-06T08:58:24;2.30;;;0.50;;
17592;SDS011;8915;51.760;14.300;2022-07-06T09:00:51;2.07;;;0.77;;
17592;SDS011;8915;51.760;14.300;2022-07-06T09:03:18;1.37;;;0.70;;
17592;SDS011;8915;51.760;14.300;2022-07-06T09:09:36;0.80;;;0.60;;
17592;SDS011;8915;51.760;14.300;2022-07-06T09:23:24;0.83;;;0.63;;
17592;SDS011;8915;51.760;14.300;2022-07-06T09:32:39;0.67;;;0.60;;
17592;SDS011;8915;51.760;14.300;2022-07-06T09:35:06;0.47;;;0.43;;
17592;SDS011;8915;51.760;14.300;2022-07-06T09:41:29;1.07;;;0.50;;
17592;SDS011;8915;51.760;14.300;2022-07-06T09:43:58;3.27;;;0.60;;
17592;SDS011;8915;51.760;14.300;2022-07-06T09:50:14;0.60;;;0.60;;
17592;SDS011;8915;51.760;14.300;2022-07-06T09:52:52;2.60;;;0.70;;
17592;SDS011;8915;51.760;14.300;2022-07-06T09:55:21;1.60;;;0.60;;
17592;SDS011;8915;51.760;14.300;2022-07-06T10:01:37;0.97;;;0.70;;
17592;SDS011;8915;51.760;14.300;2022-07-06T10:04:05;1.90;;;0.70;;
17592;SDS011;8915;51.760;14.300;2022-07-06T10:06:38;0.60;;;0.60;;
17592;SDS011;8915;51.760;14.300;2022-07-06T10:09:05;0.53;;;0.53;;
17592;SDS011;8915;51.760;14.300;2022-07-06T10:11:33;0.87;;;0.57;;
17592;SDS011;8915;51.760;14.300;2022-07-06T10:14:03;0.50;;;0.50;;
17592;SDS011;8915;51.760;14.300;2022-07-06T10:16:31;3.50;;;0.73;;
17592;SDS011;8915;51.760;14.300;2022-07-06T10:19:00;1.33;;;0.70;;
17592;SDS011;8915;51.760;14.300;2022-07-06T10:21:28;2.20;;;0.73;;
17592;SDS011;8915;51.760;14.300;2022-07-06T10:23:54;0.50;;;0.50;;
17592;SDS011;8915;51.760;14.300;2022-07-06T10:26:25;1.10;;;0.60;;
17592;SDS011;8915;51.760;14.300;2022-07-06T10:28:51;1.17;;;0.70;;
17592;SDS011;8915;51.760;14.300;2022-07-06T10:31:18;1.30;;;0.70;;
17592;SDS011;8915;51.760;14.300;2022-07-06T10:33:46;1.03;;;0.50;;
17592;SDS011;8915;51.760;14.300;2022-07-06T10:36:14;0.80;;;0.60;;
17592;SDS011;8915;51.760;14.300;2022-07-06T10:38:41;0.80;;;0.57;;
17592;SDS011;8915;51.760;14.300;2022-07-06T10:41:15;0.93;;;0.57;;
17592;SDS011;8915;51.760;14.300;2022-07-06T10:43:41;1.97;;;0.50;;
17592;SDS011;8915;51.760;14.300;2022-07-06T10:46:09;2.40;;;0.50;;
17592;SDS011;8915;51.760;14.300;2022-07-06T10:48:37;0.50;;;0.50;;
17592;SDS011;8915;51.760;14.300;2022-07-06T10:51:05;0.83;;;0.60;;
17592;SDS011;8915;51.760;14.300;2022-07-06T10:53:34;0.57;;;0.57;;
17592;SDS011;8915;51.760;14.300;2022-07-06T10:56:05;0.60;;;0.60;;
17592;SDS011;8915;51.760;14.300;2022-07-06T10:58:36;0.57;;;0.57;;
17592;SDS011;8915;51.760;14.300;2022-07-06T11:01:16;0.50;;;0.50;;
17592;SDS011;8915;51.760;14.300;2022-07-06T11:07:03;2.10;;;0.70;;
17592;SDS011;8915;51.760;14.300;2022-07-06T11:09:34;0.45;;;0.45;;
17592;SDS011;8915;51.760;14.300;2022-07-06T11:14:50;0.70;;;0.40;;
17592;SDS011;8915;51.760;14.300;2022-07-06T11:17:17;0.73;;;0.60;;
17592;SDS011;8915;51.760;14.300;2022-07-06T11:19:48;0.52;;;0.50;;
17592;SDS011;8915;51.760;14.300;2022-07-06T11:22:16;0.68;;;0.43;;
17592;SDS011;8915;51.760;14.300;2022-07-06T11:24:45;0.40;;;0.40;;
17592;SDS011;8915;51.760;14.300;2022-07-06T11:27:12;1.52;;;0.60;;
17592;SDS011;8915;51.760;14.300;2022-07-06T11:29:39;0.80;;;0.70;;
17592;SDS011;8915;51.760;14.300;2022-07-06T11:32:06;0.73;;;0.60;;
17592;SDS011;8915;51.760;14.300;2022-07-06T11:34:36;2.00;;;0.60;;
17592;SDS011;8915;51.760;14.300;2022-07-06T11:37:05;1.27;;;0.60;;
17592;SDS011;8915;51.760;14.300;2022-07-06T11:39:33;0.73;;;0.50;;
17592;SDS011;8915;51.760;14.300;2022-07-06T11:42:10;1.87;;;0.50;;
17592;SDS011;8915;51.760;14.300;2022-07-06T11:44:38;2.30;;;0.50;;
17592;SDS011;8915;51.760;14.300;2022-07-06T11:47:06;0.93;;;0.50;;
17592;SDS011;8915;51.760;14.300;2022-07-06T11:49:34;0.60;;;0.60;;
17592;SDS011;8915;51.760;14.300;2022-07-06T11:52:11;0.50;;;0.50;;
17592;SDS011;8915;51.760;14.300;2022-07-06T11:54:38;1.17;;;0.50;;
17592;SDS011;8915;51.760;14.300;2022-07-06T11:57:07;0.57;;;0.43;;
17592;SDS011;8915;51.760;14.300;2022-07-06T11:59:37;1.70;;;0.60;;
17592;SDS011;8915;51.760;14.300;2022-07-06T12:02:05;0.57;;;0.53;;
17592;SDS011;8915;51.760;14.300;2022-07-06T12:04:33;0.63;;;0.43;;
17592;SDS011;8915;51.760;14.300;2022-07-06T12:07:01;0.87;;;0.43;;
17592;SDS011;8915;51.760;14.300;2022-07-06T12:09:29;1.00;;;0.60;;
17592;SDS011;8915;51.760;14.300;2022-07-06T12:11:57;0.80;;;0.50;;
17592;SDS011;8915;51.760;14.300;2022-07-06T12:14:28;0.63;;;0.57;;
17592;SDS011;8915;51.760;14.300;2022-07-06T12:16:55;0.30;;;0.30;;
17592;SDS011;8915;51.760;14.300;2022-07-06T12:19:22;1.63;;;0.50;;
17592;SDS011;8915;51.760;14.300;2022-07-06T12:21:49;0.50;;;0.50;;
17592;SDS011;8915;51.760;14.300;2022-07-06T12:24:16;1.88;;;0.50;;
17592;SDS011;8915;51.760;14.300;2022-07-06T12:26:44;0.95;;;0.50;;
17592;SDS011;8915;51.760;14.300;2022-07-06T12:29:11;0.87;;;0.47;;
17592;SDS011;8915;51.760;14.300;2022-07-06T12:31:40;0.40;;;0.40;;
17592;SDS011;8915;51.760;14.300;2022-07-06T12:34:12;0.40;;;0.40;;
17592;SDS011;8915;51.760;14.300;2022-07-06T12:40:04;1.02;;;0.60;;
17592;SDS011;8915;51.760;14.300;2022-07-06T12:42:44;1.48;;;0.70;;
17592;SDS011;8915;51.760;14.300;2022-07-06T12:45:11;0.40;;;0.40;;
17592;SDS011;8915;51.760;14.300;2022-07-06T12:47:39;1.48;;;0.70;;
17592;SDS011;8915;51.760;14.300;2022-07-06T12:50:08;0.73;;;0.30;;
17592;SDS011;8915;51.760;14.300;2022-07-06T12:52:36;1.65;;;0.60;;
17592;SDS011;8915;51.760;14.300;2022-07-06T12:55:04;1.45;;;0.30;;
17592;SDS011;8915;51.760;14.300;2022-07-06T12:57:41;0.68;;;0.40;;
17592;SDS011;8915;51.760;14.300;2022-07-06T13:00:09;1.10;;;0.40;;
17592;SDS011;8915;51.760;14.300;2022-07-06T13:02:36;0.63;;;0.40;;
17592;SDS011;8915;51.760;14.300;2022-07-06T13:05:05;0.50;;;0.25;;
17592;SDS011;8915;51.760;14.300;2022-07-06T13:07:35;0.50;;;0.30;;
17592;SDS011;8915;51.760;14.300;2022-07-06T13:10:03;0.88;;;0.70;;
17592;SDS011;8915;51.760;14.300;2022-07-06T13:12:32;0.40;;;0.40;;
17592;SDS011;8915;51.760;14.300;2022-07-06T13:14:59;0.47;;;0.40;;
17592;SDS011;8915;51.760;14.300;2022-07-06T13:17:25;0.47;;;0.47;;
17592;SDS011;8915;51.760;14.300;2022-07-06T13:19:53;1.00;;;0.50;;
17592;SDS011;8915;51.760;14.300;2022-07-06T13:22:20;0.50;;;0.50;;
17592;SDS011;8915;51.760;14.300;2022-07-06T13:24:46;0.80;;;0.50;;
17592;SDS011;8915;51.760;14.300;2022-07-06T13:27:12;0.40;;;0.40;;
17592;SDS011;8915;51.760;14.300;2022-07-06T13:29:39;1.20;;;0.47;;
17592;SDS011;8915;51.760;14.300;2022-07-06T13:32:06;2.13;;;0.70;;
17592;SDS011;8915;51.760;14.300;2022-07-06T13:34:33;0.35;;;0.30;;
17592;SDS011;8915;51.760;14.300;2022-07-06T13:37:02;0.45;;;0.40;;
17592;SDS011;8915;51.760;14.300;2022-07-06T13:39:29;0.65;;;0.50;;
17592;SDS011;8915;51.760;14.300;2022-07-06T13:41:55;0.40;;;0.40;;
17592;SDS011;8915;51.760;14.300;2022-07-06T13:44:22;0.80;;;0.60;;
17592;SDS011;8915;51.760;14.300;2022-07-06T13:46:49;1.65;;;0.57;;
17592;SDS011;8915;51.760;14.300;2022-07-06T13:49:15;0.47;;;0.43;;
17592;SDS011;8915;51.760;14.300;2022-07-06T13:51:42;0.63;;;0.40;;
17592;SDS011;8915;51.760;14.300;2022-07-06T13:54:10;1.92;;;0.77;;
17592;SDS011;8915;51.760;14.300;2022-07-06T13:56:37;0.30;;;0.30;;
17592;SDS011;8915;51.760;14.300;2022-07-06T13:59:05;1.00;;;0.32;;
17592;SDS011;8915;51.760;14.300;2022-07-06T14:01:32;0.80;;;0.40;;
17592;SDS011;8915;51.760;14.300;2022-07-06T14:03:59;0.50;;;0.50;;
17592;SDS011;8915;51.760;14.300;2022-07-06T14:06:25;0.63;;;0.45;;
17592;SDS011;8915;51.760;14.300;2022-07-06T14:08:52;0.40;;;0.40;;
17592;SDS011;8915;51.760;14.300;2022-07-06T14:11:19;4.55;;;0.60;;
17592;SDS011;8915;51.760;14.300;2022-07-06T14:13:46;0.52;;;0.40;;
17592;SDS011;8915;51.760;14.300;2022-07-06T14:16:12;1.10;;;0.60;;
17592;SDS011;8915;51.760;14.300;2022-07-06T14:18:39;1.10;;;0.40;;
17592;SDS011;8915;51.760;14.300;2022-07-06T14:21:05;0.40;;;0.40;;
17592;SDS011;8915;51.760;14.300;2022-07-06T14:23:32;1.20;;;0.50;;
17592;SDS011;8915;51.760;14.300;2022-07-06T14:25:58;0.80;;;0.37;;
17592;SDS011;8915;51.760;14.300;2022-07-06T14:28:26;1.23;;;0.30;;
17592;SDS011;8915;51.760;14.300;2022-07-06T14:30:52;0.38;;;0.35;;
17592;SDS011;8915;51.760;14.300;2022-07-06T14:33:19;0.47;;;0.45;;
17592;SDS011;8915;51.760;14.300;2022-07-06T14:35:46;1.00;;;0.43;;
17592;SDS011;8915;51.760;14.300;2022-07-06T14:38:15;0.40;;;0.40;;
17592;SDS011;8915;51.760;14.300;2022-07-06T14:40:43;0.90;;;0.50;;
17592;SDS011;8915;51.760;14.300;2022-07-06T14:43:09;0.30;;;0.30;;
17592;SDS011;8915;51.760;14.300;2022-07-06T14:45:37;0.40;;;0.30;;
17592;SDS011;8915;51.760;14.300;2022-07-06T14:48:04;0.55;;;0.38;;
17592;SDS011;8915;51.760;14.300;2022-07-06T14:50:31;0.65;;;0.43;;
17592;SDS011;8915;51.760;14.300;2022-07-06T14:52:59;1.70;;;0.40;;
17592;SDS011;8915;51.760;14.300;2022-07-06T14:55:26;0.90;;;0.40;;
17592;SDS011;8915;51.760;14.300;2022-07-06T14:57:52;2.05;;;0.60;;
17592;SDS011;8915;51.760;14.300;2022-07-06T15:00:20;0.30;;;0.30;;
17592;SDS011;8915;51.760;14.300;2022-07-06T15:02:48;0.40;;;0.40;;
17592;SDS011;8915;51.760;14.300;2022-07-06T15:05:14;1.35;;;0.50;;
17592;SDS011;8915;51.760;14.300;2022-07-06T15:07:41;1.10;;;0.70;;
17592;SDS011;8915;51.760;14.300;2022-07-06T15:10:08;1.08;;;0.40;;
17592;SDS011;8915;51.760;14.300;2022-07-06T15:12:35;0.32;;;0.32;;
17592;SDS011;8915;51.760;14.300;2022-07-06T15:15:02;0.20;;;0.20;;
17592;SDS011;8915;51.760;14.300;2022-07-06T15:17:28;2.00;;;0.40;;
17592;SDS011;8915;51.760;14.300;2022-07-06T15:19:58;1.17;;;0.52;;
17592;SDS011;8915;51.760;14.300;2022-07-06T15:22:24;0.73;;;0.47;;
17592;SDS011;8915;51.760;14.300;2022-07-06T15:24:51;6.32;;;0.60;;
17592;SDS011;8915;51.760;14.300;2022-07-06T15:27:17;2.33;;;0.57;;
17592;SDS011;8915;51.760;14.300;2022-07-06T15:29:44;0.57;;;0.30;;
17592;SDS011;8915;51.760;14.300;2022-07-06T15:32:10;0.85;;;0.30;;
17592;SDS011;8915;51.760;14.300;2022-07-06T15:34:37;0.40;;;0.40;;
17592;SDS011;8915;51.760;14.300;2022-07-06T15:37:05;0.30;;;0.25;;